createdAt,value
2023-01-01T00:00:51.189Z,3.75
2023-01-01T00:03:22.006Z,3.85
2023-01-01T00:05:50.320Z,2.72
2023-01-01T00:08:18.797Z,1.92
2023-01-01T00:10:45.977Z,2.47
2023-01-01T00:13:16.200Z,4.90
2023-01-01T00:15:49.257Z,1.83
2023-01-01T00:18:18.338Z,2.15
2023-01-01T00:20:46.489Z,2.13
2023-01-01T00:23:17.471Z,2.30
2023-01-01T00:25:46.368Z,1.87
2023-01-01T00:28:14.559Z,2.67
2023-01-01T00:30:42.748Z,2.00
2023-01-01T00:33:12.387Z,2.80
2023-01-01T00:35:40.879Z,4.70
2023-01-01T00:38:09.452Z,1.90
2023-01-01T00:40:37.698Z,1.83
2023-01-01T00:43:06.006Z,1.75
2023-01-01T00:45:34.584Z,2.00
2023-01-01T00:48:03.051Z,2.70
2023-01-01T00:50:33.262Z,2.78
2023-01-01T00:53:02.062Z,1.40
2023-01-01T00:55:33.268Z,2.53
2023-01-01T00:58:01.827Z,1.95
2023-01-01T01:00:30.377Z,1.13
2023-01-01T01:02:59.228Z,3.15
2023-01-01T01:05:28.915Z,1.45
2023-01-01T01:07:59.075Z,1.10
2023-01-01T01:10:27.363Z,1.58
2023-01-01T01:12:56.634Z,1.30
2023-01-01T01:15:25.019Z,1.30
2023-01-01T01:17:53.403Z,2.08
2023-01-01T01:20:21.662Z,2.35
2023-01-01T01:22:50.314Z,1.85
2023-01-01T01:25:20.303Z,1.50
2023-01-01T01:27:48.690Z,1.38
2023-01-01T01:30:17.503Z,1.65
2023-01-01T01:32:45.726Z,1.38
2023-01-01T01:35:14.094Z,1.48
2023-01-01T01:37:42.423Z,1.52
2023-01-01T01:40:15.743Z,2.65
2023-01-01T01:42:49.298Z,3.38
2023-01-01T01:45:18.783Z,2.88
2023-01-01T01:47:53.854Z,2.22
2023-01-01T01:50:29.797Z,1.50
2023-01-01T01:53:08.704Z,2.28
2023-01-01T01:55:45.412Z,2.13
2023-01-01T01:58:18.534Z,2.92
2023-01-01T02:00:47.139Z,2.90
2023-01-01T02:03:21.902Z,1.98
2023-01-01T02:05:52.232Z,1.40
2023-01-01T02:08:22.201Z,1.60
2023-01-01T02:10:50.423Z,1.90
2023-01-01T02:13:20.361Z,2.90
2023-01-01T02:15:56.287Z,2.45
2023-01-01T02:18:34.521Z,2.92
2023-01-01T02:21:15.597Z,1.77
2023-01-01T02:24:34.001Z,2.90
2023-01-01T02:27:11.210Z,2.53
2023-01-01T02:29:47.390Z,2.63
2023-01-01T02:32:22.086Z,2.53
2023-01-01T02:34:59.796Z,2.10
2023-01-01T02:37:31.122Z,2.05
2023-01-01T02:40:02.495Z,2.42
2023-01-01T02:42:31.968Z,4.03
2023-01-01T02:45:02.580Z,2.33
2023-01-01T02:47:30.962Z,2.80
2023-01-01T02:50:11.281Z,2.13
2023-01-01T02:52:57.536Z,3.03
2023-01-01T02:55:38.646Z,2.90
2023-01-01T03:42:07.444Z,1.73
2023-01-01T03:44:45.318Z,1.83
2023-01-01T03:47:14.673Z,2.60
2023-01-01T03:49:45.356Z,2.00
2023-01-01T03:52:31.948Z,2.72
2023-01-01T03:55:11.426Z,2.08
2023-01-01T03:57:52.191Z,2.30
2023-01-01T04:00:24.216Z,2.05
2023-01-01T04:02:58.603Z,2.67
2023-01-01T04:05:29.689Z,4.40
2023-01-01T04:08:02.056Z,2.50
2023-01-01T04:10:34.987Z,2.70
2023-01-01T04:13:07.691Z,2.43
2023-01-01T04:15:37.197Z,4.00
2023-01-01T04:18:06.686Z,2.50
2023-01-01T04:20:35.054Z,2.35
2023-01-01T04:23:04.326Z,3.28
2023-01-01T04:25:33.939Z,2.28
2023-01-01T04:28:03.780Z,2.67
2023-01-01T04:33:02.094Z,3.10
2023-01-01T04:35:30.837Z,2.13
2023-01-01T04:37:59.317Z,3.65
2023-01-01T04:40:28.205Z,2.65
2023-01-01T04:42:56.445Z,2.00
2023-01-01T04:45:25.044Z,3.00
2023-01-01T04:47:54.737Z,2.50
2023-01-01T04:50:23.787Z,2.20
2023-01-01T04:52:54.060Z,3.13
2023-01-01T04:55:22.796Z,2.17
2023-01-01T04:57:51.039Z,3.75
2023-01-01T05:00:20.374Z,2.88
2023-01-01T05:02:48.635Z,2.15
2023-01-01T05:05:19.512Z,3.00
2023-01-01T05:07:47.828Z,3.63
2023-01-01T05:10:16.587Z,2.78
2023-01-01T05:12:45.437Z,2.80
2023-01-01T05:15:13.947Z,2.22
2023-01-01T05:17:42.499Z,3.08
2023-01-01T05:20:12.277Z,2.10
2023-01-01T05:22:41.944Z,3.50
2023-01-01T05:25:11.285Z,2.88
2023-01-01T05:27:39.591Z,4.00
2023-01-01T05:30:10.306Z,2.22
2023-01-01T05:32:39.541Z,2.78
2023-01-01T05:35:08.946Z,4.60
2023-01-01T05:37:37.298Z,2.45
2023-01-01T05:40:08.907Z,3.33
2023-01-01T05:42:37.611Z,3.85
2023-01-01T05:45:07.864Z,3.85
2023-01-01T05:47:36.261Z,3.42
2023-01-01T05:52:32.781Z,3.47
2023-01-01T05:55:02.305Z,2.50
2023-01-01T05:57:32.188Z,3.50
2023-01-01T06:00:00.773Z,4.23
2023-01-01T06:02:31.881Z,3.13
2023-01-01T06:05:00.400Z,4.75
2023-01-01T06:07:28.796Z,2.97
2023-01-01T06:09:57.544Z,2.72
2023-01-01T06:12:25.861Z,2.67
2023-01-01T06:14:55.882Z,3.13
2023-01-01T06:17:24.710Z,4.68
2023-01-01T06:19:53.313Z,3.67
2023-01-01T06:22:21.872Z,4.60
2023-01-01T06:24:50.427Z,3.35
2023-01-01T06:27:18.798Z,3.03
2023-01-01T06:29:47.062Z,3.90
2023-01-01T06:32:17.605Z,5.38
2023-01-01T06:34:45.857Z,4.60
2023-01-01T06:37:14.818Z,2.47
2023-01-01T06:39:43.214Z,3.78
2023-01-01T06:42:12.046Z,3.35
2023-01-01T06:44:42.384Z,5.13
2023-01-01T06:47:10.883Z,4.13
2023-01-01T06:49:40.599Z,3.15
2023-01-01T06:52:09.682Z,2.65
2023-01-01T06:54:38.035Z,2.50
2023-01-01T06:57:07.150Z,4.57
2023-01-01T06:59:35.746Z,4.60
2023-01-01T07:02:04.030Z,4.03
2023-01-01T07:04:32.583Z,2.63
2023-01-01T07:07:02.815Z,4.25
2023-01-01T07:09:31.183Z,4.07
2023-01-01T07:12:00.321Z,4.07
2023-01-01T07:14:28.702Z,4.20
2023-01-01T07:16:57.084Z,2.60
2023-01-01T07:19:25.487Z,3.22
2023-01-01T07:21:56.205Z,2.60
2023-01-01T07:24:26.030Z,4.22
2023-01-01T07:26:54.876Z,4.67
2023-01-01T07:29:23.309Z,2.83
2023-01-01T07:31:51.775Z,5.47
2023-01-01T07:34:23.288Z,4.07
2023-01-01T07:36:52.226Z,5.30
2023-01-01T07:39:20.863Z,4.18
2023-01-01T07:41:52.023Z,3.35
2023-01-01T07:44:20.945Z,5.47
2023-01-01T07:46:49.344Z,4.03
2023-01-01T07:49:19.096Z,5.68
2023-01-01T07:51:47.494Z,3.63
2023-01-01T07:54:15.884Z,5.75
2023-01-01T07:56:44.815Z,4.80
2023-01-01T07:59:20.330Z,4.43
2023-01-01T08:01:49.526Z,6.28
2023-01-01T08:04:18.211Z,5.90
2023-01-01T08:06:46.611Z,4.83
2023-01-01T08:09:15.627Z,5.68
2023-01-01T08:11:44.116Z,2.75
2023-01-01T08:14:15.197Z,4.80
2023-01-01T08:16:43.722Z,5.03
2023-01-01T08:19:13.875Z,3.83
2023-01-01T08:21:42.914Z,4.75
2023-01-01T08:24:11.354Z,3.45
2023-01-01T08:26:40.576Z,5.30
2023-01-01T08:29:09.023Z,3.50
2023-01-01T08:31:39.319Z,3.90
2023-01-01T08:34:08.200Z,5.07
2023-01-01T08:36:37.920Z,3.80
2023-01-01T08:39:06.563Z,4.38
2023-01-01T08:41:35.566Z,4.93
2023-01-01T08:44:03.971Z,4.23
2023-01-01T08:46:33.006Z,5.75
2023-01-01T08:49:03.072Z,5.85
2023-01-01T08:51:31.381Z,5.10
2023-01-01T08:54:00.066Z,3.45
2023-01-01T08:56:28.417Z,5.53
2023-01-01T08:59:03.582Z,6.35
2023-01-01T09:01:33.047Z,4.78
2023-01-01T09:04:04.181Z,3.28
2023-01-01T09:06:32.495Z,4.47
2023-01-01T09:09:00.707Z,4.35
2023-01-01T09:11:30.495Z,3.13
2023-01-01T09:13:58.958Z,5.55
2023-01-01T09:16:27.622Z,4.00
2023-01-01T09:18:56.402Z,4.88
2023-01-01T09:21:26.233Z,4.70
2023-01-01T09:23:54.434Z,5.35
2023-01-01T09:26:23.103Z,6.32
2023-01-01T09:28:51.675Z,4.88
2023-01-01T09:31:20.667Z,5.05
2023-01-01T09:33:49.123Z,4.40
2023-01-01T09:36:31.049Z,7.05
2023-01-01T09:39:00.593Z,5.10
2023-01-01T09:41:47.413Z,5.47
2023-01-01T09:44:34.018Z,3.85
2023-01-01T09:47:07.100Z,5.68
2023-01-01T09:49:43.956Z,7.28
2023-01-01T09:52:16.568Z,3.75
2023-01-01T09:54:51.878Z,3.57
2023-01-01T09:57:20.594Z,7.07
2023-01-01T09:59:50.807Z,4.35
2023-01-01T10:02:49.833Z,5.82
2023-01-01T10:05:35.330Z,5.10
2023-01-01T10:08:23.024Z,4.67
2023-01-01T10:11:01.932Z,6.27
2023-01-01T10:13:39.627Z,4.88
2023-01-01T10:16:23.999Z,5.00
2023-01-01T10:18:59.992Z,4.68
2023-01-01T10:21:34.658Z,5.55
2023-01-01T10:24:19.585Z,5.57
2023-01-01T10:26:50.473Z,7.13
2023-01-01T10:29:25.687Z,6.32
2023-01-01T10:31:57.251Z,5.65
2023-01-01T10:34:32.485Z,7.13
2023-01-01T10:37:03.494Z,4.32
2023-01-01T10:39:33.765Z,5.07
2023-01-01T10:42:04.042Z,5.90
2023-01-01T10:44:36.174Z,7.38
2023-01-01T10:47:25.387Z,4.65
2023-01-01T10:50:00.233Z,6.00
2023-01-01T10:52:35.238Z,5.83
2023-01-01T10:55:07.276Z,4.70
2023-01-01T10:57:40.479Z,4.47
2023-01-01T11:00:25.425Z,4.50
2023-01-01T11:03:19.385Z,6.97
2023-01-01T11:06:19.520Z,6.88
2023-01-01T11:08:52.443Z,3.75
2023-01-01T11:11:32.281Z,7.15
2023-01-01T11:14:06.335Z,5.07
2023-01-01T11:16:34.920Z,4.22
2023-01-01T11:19:07.035Z,6.27
2023-01-01T11:21:36.643Z,5.45
2023-01-01T11:24:20.397Z,5.28
2023-01-01T11:26:54.860Z,5.22
2023-01-01T11:29:29.641Z,3.83
2023-01-01T11:32:01.043Z,6.30
2023-01-01T11:34:35.771Z,4.72
2023-01-01T11:37:21.858Z,5.55
2023-01-01T11:39:54.933Z,5.07
2023-01-01T11:42:28.490Z,6.03
2023-01-01T11:44:59.719Z,4.45
2023-01-01T11:47:32.604Z,7.15
2023-01-01T11:50:09.618Z,5.22
2023-01-01T11:52:41.592Z,4.55
2023-01-01T11:55:28.092Z,5.80
2023-01-01T11:58:14.364Z,5.75
2023-01-01T12:00:52.181Z,7.18
2023-01-01T12:03:33.360Z,6.43
2023-01-01T12:06:11.892Z,7.22
2023-01-01T12:08:46.607Z,5.23
2023-01-01T12:11:24.950Z,3.92
2023-01-01T12:14:06.051Z,5.10
2023-01-01T12:16:50.411Z,6.27
2023-01-01T12:19:26.485Z,7.72
2023-01-01T12:21:59.846Z,5.35
2023-01-01T12:24:35.422Z,6.18
2023-01-01T12:27:24.031Z,4.80
2023-01-01T12:30:20.188Z,6.50
2023-01-01T12:33:36.501Z,4.38
2023-01-01T12:36:27.004Z,5.70
2023-01-01T12:40:01.965Z,5.60
2023-01-01T12:42:47.053Z,5.83
2023-01-01T12:45:45.198Z,5.13
2023-01-01T12:48:37.583Z,5.38
2023-01-01T12:51:24.296Z,4.53
2023-01-01T12:54:12.926Z,7.47
2023-01-01T12:56:50.616Z,4.30
2023-01-01T12:59:26.049Z,5.40
2023-01-01T13:02:01.750Z,6.53
2023-01-01T13:04:31.150Z,5.82
2023-01-01T13:07:05.649Z,7.55
2023-01-01T13:09:39.674Z,5.80
2023-01-01T13:12:13.347Z,7.43
2023-01-01T13:14:45.069Z,7.25
2023-01-01T13:17:24.179Z,4.65
2023-01-01T13:19:59.704Z,6.17
2023-01-01T13:22:44.606Z,3.90
2023-01-01T13:25:25.492Z,5.85
2023-01-01T13:28:21.031Z,6.65
2023-01-01T13:30:51.797Z,7.45
2023-01-01T13:33:27.490Z,7.57
2023-01-01T13:36:32.271Z,7.40
2023-01-01T13:39:02.461Z,5.38
2023-01-01T13:41:35.594Z,4.50
2023-01-01T13:44:23.068Z,5.53
2023-01-01T13:47:13.229Z,6.78
2023-01-01T13:50:06.398Z,6.07
2023-01-01T13:53:01.513Z,7.13
2023-01-01T13:55:59.196Z,3.70
2023-01-01T13:59:20.198Z,3.70
2023-01-01T14:02:12.886Z,4.00
2023-01-01T14:04:51.386Z,7.47
2023-01-01T14:10:30.571Z,8.20
2023-01-01T14:13:17.067Z,5.30
2023-01-01T14:15:55.319Z,6.47
2023-01-01T14:18:34.817Z,5.43
2023-01-01T14:21:10.684Z,7.63
2023-01-01T14:23:44.113Z,3.60
2023-01-01T14:26:16.030Z,5.03
2023-01-01T14:28:45.604Z,5.65
2023-01-01T14:31:18.511Z,5.20
2023-01-01T14:33:47.617Z,9.32
2023-01-01T14:36:25.025Z,5.27
2023-01-01T14:38:56.116Z,5.70
2023-01-01T14:41:31.429Z,5.73
2023-01-01T14:44:08.136Z,7.15
2023-01-01T14:46:42.327Z,6.95
2023-01-01T14:49:17.233Z,15.03
2023-01-01T14:51:55.595Z,8.70
2023-01-01T14:54:34.785Z,5.38
2023-01-01T14:57:03.676Z,6.50
2023-01-01T14:59:35.066Z,7.10
2023-01-01T15:02:16.703Z,6.18
2023-01-01T15:04:45.386Z,6.53
2023-01-01T15:07:23.845Z,7.78
2023-01-01T15:09:54.111Z,7.63
2023-01-01T15:12:23.598Z,11.48
2023-01-01T15:14:55.447Z,39.88
2023-01-01T15:17:26.591Z,24.20
2023-01-01T15:20:04.919Z,14.57
2023-01-01T15:22:39.102Z,14.38
2023-01-01T15:25:14.966Z,12.17
2023-01-01T15:27:44.453Z,14.10
2023-01-01T15:30:27.059Z,15.40
2023-01-01T15:32:55.735Z,17.15
2023-01-01T15:35:32.254Z,18.47
2023-01-01T15:38:11.583Z,39.38
2023-01-01T15:40:40.643Z,31.98
2023-01-01T15:43:30.269Z,32.95
2023-01-01T15:55:29.737Z,20.55
2023-01-01T19:04:46.297Z,8.68
2023-01-01T19:07:15.514Z,13.65
2023-01-01T19:09:44.159Z,17.67
2023-01-01T19:12:19.178Z,14.60
2023-01-01T19:14:49.728Z,11.30
2023-01-01T19:17:24.403Z,9.00
2023-01-01T19:19:54.526Z,8.02
2023-01-01T19:22:32.427Z,6.88
2023-01-01T19:25:04.336Z,9.15
2023-01-01T19:27:34.212Z,6.93
2023-01-01T19:30:19.488Z,6.40
2023-01-01T19:32:49.026Z,7.53
2023-01-01T19:35:18.814Z,6.40
2023-01-01T19:37:47.279Z,6.32
2023-01-01T19:40:16.124Z,5.40
2023-01-01T19:42:44.566Z,6.97
2023-01-01T19:45:13.913Z,7.67
2023-01-01T19:47:43.649Z,6.03
2023-01-01T19:50:13.810Z,4.47
2023-01-01T19:52:44.904Z,5.17
2023-01-01T19:55:13.236Z,13.73
2023-01-01T19:57:41.550Z,29.38
2023-01-01T20:00:11.971Z,45.23
2023-01-01T20:02:46.509Z,27.35
2023-01-01T20:05:16.990Z,9.13
2023-01-01T20:49:40.463Z,6.10
2023-01-01T21:16:33.762Z,4.22
2023-01-01T21:56:34.510Z,6.47
2023-01-01T21:59:28.389Z,7.60
2023-01-01T22:02:36.042Z,5.43
2023-01-01T22:05:30.554Z,4.97
2023-01-01T22:08:00.451Z,4.13
2023-01-01T22:10:35.335Z,6.88
2023-01-01T22:13:18.450Z,6.03
2023-01-01T22:15:47.533Z,5.07
2023-01-01T22:18:24.111Z,4.13
2023-01-01T22:20:53.880Z,5.57
2023-01-01T22:23:35.045Z,4.95
2023-01-01T22:26:15.139Z,4.73
2023-01-01T22:28:48.367Z,4.40
2023-01-01T22:31:24.794Z,5.78
2023-01-01T22:33:55.703Z,4.82
2023-01-01T22:36:27.114Z,7.07
2023-01-01T22:39:01.797Z,7.55
2023-01-01T22:41:31.030Z,7.23
2023-01-01T22:44:04.556Z,4.53
2023-01-01T22:46:38.134Z,5.00
2023-01-01T22:49:23.889Z,5.00
2023-01-01T22:51:56.381Z,8.10
2023-01-01T22:54:25.422Z,8.50
2023-01-01T22:56:53.642Z,5.60
2023-01-01T22:59:23.524Z,6.55
2023-01-01T23:01:54.311Z,8.60
2023-01-01T23:04:22.608Z,5.20
2023-01-01T23:06:51.958Z,5.25
2023-01-01T23:09:20.801Z,6.33
2023-01-01T23:11:49.733Z,6.82
2023-01-01T23:14:39.157Z,4.87
2023-01-01T23:17:09.340Z,5.20
2023-01-01T23:19:37.936Z,5.57
2023-01-01T23:22:06.551Z,4.63
2023-01-01T23:24:35.440Z,5.03
2023-01-01T23:27:05.371Z,6.63
2023-01-01T23:29:35.599Z,5.85
2023-01-01T23:32:06.158Z,7.97
2023-01-01T23:34:36.271Z,6.78
2023-01-01T23:37:04.578Z,7.32
2023-01-01T23:39:33.315Z,8.23
2023-01-01T23:42:01.699Z,8.27
2023-01-01T23:44:30.549Z,6.30
2023-01-01T23:47:01.974Z,6.10
2023-01-01T23:49:35.467Z,6.28
2023-01-01T23:52:05.572Z,4.15
2023-01-01T23:54:34.143Z,3.78
2023-01-01T23:57:03.097Z,4.30
2023-01-01T23:59:31.564Z,3.50
